createdAt,value
2018-04-20T00:02:16.684Z,13.53
2018-04-20T00:04:44.387Z,9.97
2018-04-20T00:07:12.961Z,6.33
2018-04-20T00:09:40.629Z,12.27
2018-04-20T00:12:08.254Z,9.00
2018-04-20T00:14:35.817Z,8.53
2018-04-20T00:17:03.362Z,8.77
2018-04-20T00:19:31.394Z,9.20
2018-04-20T00:21:59.046Z,9.40
2018-04-20T00:24:26.659Z,8.27
2018-04-20T00:26:54.159Z,6.90
2018-04-20T00:29:21.759Z,11.10
2018-04-20T00:31:49.434Z,9.13
2018-04-20T00:34:17.033Z,8.10
2018-04-20T00:36:44.587Z,7.63
2018-04-20T00:39:12.108Z,7.37
2018-04-20T00:41:39.602Z,11.83
2018-04-20T00:44:07.320Z,10.00
2018-04-20T00:46:34.866Z,8.77
2018-04-20T00:49:03.273Z,8.43
2018-04-20T00:51:30.958Z,9.90
2018-04-20T00:54:10.366Z,7.13
2018-04-20T00:56:37.896Z,9.83
2018-04-20T00:59:05.601Z,8.60
2018-04-20T01:01:34.455Z,6.30
2018-04-20T01:04:02.140Z,8.07
2018-04-20T01:06:29.732Z,11.43
2018-04-20T01:08:57.258Z,10.37
2018-04-20T01:11:24.836Z,8.13
2018-04-20T01:13:52.357Z,10.40
2018-04-20T01:16:19.891Z,8.03
2018-04-20T01:18:47.422Z,12.03
2018-04-20T01:21:15.126Z,7.07
2018-04-20T01:23:42.818Z,7.40
2018-04-20T01:26:10.364Z,8.43
2018-04-20T01:28:37.896Z,9.40
2018-04-20T01:31:05.403Z,8.57
2018-04-20T01:33:33.001Z,18.50
2018-04-20T01:36:01.441Z,7.33
2018-04-20T01:38:29.064Z,8.63
2018-04-20T01:40:56.636Z,9.83
2018-04-20T01:43:24.196Z,8.07
2018-04-20T01:45:51.774Z,6.83
2018-04-20T01:48:19.440Z,8.10
2018-04-20T01:50:46.971Z,7.27
2018-04-20T01:53:14.514Z,7.33
2018-04-20T01:55:42.173Z,10.23
2018-04-20T01:58:09.805Z,7.77
2018-04-20T02:00:37.299Z,7.13
2018-04-20T02:03:04.866Z,7.80
2018-04-20T02:05:35.311Z,6.27
2018-04-20T02:08:02.996Z,10.17
2018-04-20T02:10:30.688Z,10.83
2018-04-20T02:12:58.343Z,9.60
2018-04-20T02:15:25.927Z,10.00
2018-04-20T02:17:53.503Z,9.30
2018-04-20T02:20:21.044Z,10.23
2018-04-20T02:22:48.627Z,11.77
2018-04-20T02:25:16.261Z,7.23
2018-04-20T02:27:43.900Z,8.20
2018-04-20T02:30:11.426Z,15.00
2018-04-20T02:32:38.944Z,12.40
2018-04-20T02:35:06.681Z,7.47
2018-04-20T02:37:34.408Z,15.50
2018-04-20T02:40:02.079Z,8.33
2018-04-20T02:42:29.647Z,9.10
2018-04-20T02:44:57.228Z,10.93
2018-04-20T02:47:24.836Z,6.93
2018-04-20T02:49:52.507Z,9.40
2018-04-20T02:52:20.383Z,11.60
2018-04-20T02:54:48.408Z,10.23
2018-04-20T02:57:16.448Z,8.60
2018-04-20T02:59:44.415Z,9.13
2018-04-20T03:02:12.027Z,8.63
2018-04-20T03:04:39.648Z,9.67
2018-04-20T03:07:07.304Z,11.03
2018-04-20T03:09:35.692Z,18.43
2018-04-20T03:12:03.350Z,23.67
2018-04-20T03:14:31.012Z,11.10
2018-04-20T03:16:58.605Z,20.57
2018-04-20T03:19:26.207Z,12.33
2018-04-20T03:21:53.899Z,9.57
2018-04-20T03:24:21.538Z,9.73
2018-04-20T03:26:49.167Z,11.63
2018-04-20T03:31:50.669Z,7.73
2018-04-20T03:34:18.338Z,10.03
2018-04-20T03:36:45.956Z,13.90
2018-04-20T03:39:13.603Z,11.90
2018-04-20T03:41:41.239Z,9.80
2018-04-20T03:44:08.910Z,9.97
2018-04-20T03:46:36.556Z,10.93
2018-04-20T03:49:04.185Z,10.23
2018-04-20T03:51:31.894Z,11.70
2018-04-20T03:53:59.464Z,9.37
2018-04-20T03:56:27.195Z,8.50
2018-04-20T03:58:54.883Z,8.40
2018-04-20T04:01:22.537Z,9.40
2018-04-20T04:03:50.200Z,9.47
2018-04-20T04:06:17.878Z,8.37
2018-04-20T04:08:45.538Z,12.77
2018-04-20T04:11:13.356Z,15.13
2018-04-20T04:13:41.062Z,12.00
2018-04-20T04:16:08.731Z,11.17
2018-04-20T04:18:48.153Z,20.33
2018-04-20T04:21:27.460Z,12.57
2018-04-20T04:24:07.654Z,11.57
2018-04-20T04:26:46.897Z,11.57
2018-04-20T04:29:14.448Z,15.63
2018-04-20T04:31:42.027Z,13.03
2018-04-20T04:34:11.535Z,15.13
2018-04-20T04:36:39.184Z,18.13
2018-04-20T04:39:06.810Z,10.50
2018-04-20T04:41:34.492Z,17.63
2018-04-20T04:44:02.166Z,24.57
2018-04-20T04:46:29.797Z,14.63
2018-04-20T04:48:57.443Z,12.63
2018-04-20T04:51:25.130Z,13.53
2018-04-20T04:53:52.734Z,12.80
2018-04-20T04:56:20.352Z,14.00
2018-04-20T04:58:47.973Z,16.70
2018-04-20T05:01:15.643Z,11.70
2018-04-20T05:03:43.169Z,13.27
2018-04-20T05:08:44.545Z,15.50
2018-04-20T05:11:13.947Z,11.60
2018-04-20T05:13:41.558Z,13.40
2018-04-20T05:16:09.226Z,11.50
2018-04-20T05:18:36.853Z,8.97
2018-04-20T05:21:04.537Z,10.10
2018-04-20T05:23:32.187Z,10.40
2018-04-20T05:25:59.931Z,11.77
2018-04-20T05:28:27.621Z,7.40
2018-04-20T05:30:55.206Z,7.30
2018-04-20T05:33:22.848Z,12.87
2018-04-20T05:35:50.451Z,23.73
2018-04-20T05:38:18.119Z,11.27
2018-04-20T05:40:45.741Z,11.23
2018-04-20T05:43:13.695Z,10.67
2018-04-20T05:45:41.460Z,7.40
2018-04-20T05:48:09.100Z,10.30
2018-04-20T05:50:36.831Z,7.87
2018-04-20T05:53:04.473Z,10.07
2018-04-20T05:55:32.080Z,6.70
2018-04-20T05:57:59.761Z,11.30
2018-04-20T06:00:27.489Z,9.87
2018-04-20T06:02:55.123Z,11.83
2018-04-20T06:05:22.838Z,12.33
2018-04-20T06:07:50.474Z,15.03
2018-04-20T06:10:18.165Z,19.30
2018-04-20T06:12:45.835Z,13.27
2018-04-20T06:15:14.533Z,14.10
2018-04-20T06:17:42.326Z,22.23
2018-04-20T06:20:09.950Z,19.77
2018-04-20T06:22:37.579Z,14.37
2018-04-20T06:25:05.369Z,12.07
2018-04-20T06:27:33.133Z,9.20
2018-04-20T06:30:00.794Z,11.07
2018-04-20T06:32:28.502Z,13.20
2018-04-20T06:34:56.168Z,12.47
2018-04-20T06:37:24.689Z,9.83
2018-04-20T06:39:52.986Z,10.53
2018-04-20T06:42:20.820Z,11.10
2018-04-20T06:44:48.431Z,11.73
2018-04-20T06:47:16.178Z,16.07
2018-04-20T06:49:43.965Z,13.13
2018-04-20T06:52:11.626Z,12.93
2018-04-20T06:54:39.392Z,32.83
2018-04-20T06:57:07.110Z,19.93
2018-04-20T06:59:35.479Z,15.70
2018-04-20T07:02:03.536Z,13.40
2018-04-20T07:04:31.215Z,12.13
2018-04-20T07:06:59.561Z,17.03
2018-04-20T07:09:28.191Z,13.07
2018-04-20T07:11:55.939Z,20.00
2018-04-20T07:14:23.574Z,12.93
2018-04-20T07:16:51.412Z,13.60
2018-04-20T07:19:19.069Z,13.07
2018-04-20T07:21:46.783Z,11.27
2018-04-20T07:24:15.474Z,16.70
2018-04-20T07:26:43.195Z,12.90
2018-04-20T07:29:11.884Z,14.03
2018-04-20T07:31:40.572Z,20.53
2018-04-20T07:34:08.244Z,17.37
2018-04-20T07:36:39.726Z,20.10
2018-04-20T07:39:07.408Z,9.77
2018-04-20T07:41:35.171Z,12.13
2018-04-20T07:44:02.794Z,7.47
2018-04-20T07:46:30.496Z,15.00
2018-04-20T07:48:58.166Z,7.20
2018-04-20T07:51:26.727Z,7.37
2018-04-20T07:56:28.678Z,7.50
2018-04-20T07:58:56.289Z,5.87
2018-04-20T08:01:23.908Z,7.07
2018-04-20T08:03:52.063Z,8.87
2018-04-20T08:06:20.122Z,10.50
2018-04-20T08:08:47.886Z,7.97
2018-04-20T08:11:15.580Z,7.50
2018-04-20T08:13:43.205Z,7.63
2018-04-20T08:16:10.906Z,6.53
2018-04-20T08:18:39.093Z,12.47
2018-04-20T08:21:06.814Z,10.20
2018-04-20T08:23:34.613Z,6.47
2018-04-20T08:26:02.294Z,10.43
2018-04-20T08:28:30.779Z,7.30
2018-04-20T08:30:59.356Z,7.60
2018-04-20T08:33:27.080Z,8.17
2018-04-20T08:35:54.708Z,19.87
2018-04-20T08:38:22.351Z,10.17
2018-04-20T08:40:49.992Z,10.33
2018-04-20T08:43:17.739Z,7.90
2018-04-20T08:45:45.404Z,8.93
2018-04-20T08:48:13.106Z,10.17
2018-04-20T08:50:41.841Z,5.67
2018-04-20T08:53:09.807Z,15.27
2018-04-20T08:55:37.593Z,10.63
2018-04-20T08:58:05.211Z,11.43
2018-04-20T09:00:32.906Z,4.90
2018-04-20T09:03:00.482Z,5.23
2018-04-20T09:05:28.155Z,7.43
2018-04-20T09:07:58.717Z,5.23
2018-04-20T09:13:01.209Z,5.30
2018-04-20T09:15:28.891Z,5.03
2018-04-20T09:17:56.637Z,6.93
2018-04-20T09:20:24.324Z,5.77
2018-04-20T09:22:52.588Z,7.70
2018-04-20T09:25:20.260Z,3.57
2018-04-20T09:27:48.965Z,9.83
2018-04-20T09:30:16.636Z,4.43
2018-04-20T09:32:44.319Z,4.47
2018-04-20T09:35:13.127Z,5.13
2018-04-20T09:37:40.904Z,6.83
2018-04-20T09:40:08.598Z,4.53
2018-04-20T09:42:37.389Z,6.53
2018-04-20T09:45:08.389Z,4.93
2018-04-20T09:47:36.049Z,5.17
2018-04-20T09:50:03.720Z,5.30
2018-04-20T09:52:31.337Z,4.90
2018-04-20T09:54:58.932Z,3.23
2018-04-20T09:57:26.591Z,4.30
2018-04-20T09:59:54.275Z,4.63
2018-04-20T10:02:32.920Z,6.93
2018-04-20T10:05:01.510Z,5.33
2018-04-20T10:07:29.125Z,5.03
2018-04-20T10:12:29.535Z,4.00
2018-04-20T10:14:57.177Z,3.10
2018-04-20T10:17:25.975Z,2.60
2018-04-20T10:19:53.663Z,2.57
2018-04-20T10:22:21.264Z,2.87
2018-04-20T10:24:48.899Z,2.80
2018-04-20T10:29:48.805Z,3.13
2018-04-20T10:32:16.454Z,3.83
2018-04-20T10:34:44.189Z,5.60
2018-04-20T10:37:12.035Z,7.40
2018-04-20T10:39:41.032Z,4.37
2018-04-20T10:42:08.743Z,6.20
2018-04-20T10:44:36.341Z,5.10
2018-04-20T10:47:04.930Z,3.30
2018-04-20T10:49:33.412Z,2.93
2018-04-20T10:52:01.080Z,4.33
2018-04-20T10:54:28.838Z,3.20
2018-04-20T10:56:56.445Z,11.00
2018-04-20T10:59:24.255Z,5.67
2018-04-20T11:01:51.949Z,8.43
2018-04-20T11:04:19.737Z,4.13
2018-04-20T11:06:47.336Z,2.70
2018-04-20T11:09:16.090Z,6.40
2018-04-20T11:11:44.705Z,4.97
2018-04-20T11:14:13.285Z,4.47
2018-04-20T11:16:40.915Z,3.63
2018-04-20T11:19:16.310Z,5.03
2018-04-20T11:21:45.983Z,5.33
2018-04-20T11:24:13.677Z,7.53
2018-04-20T11:26:43.052Z,4.43
2018-04-20T11:29:14.147Z,4.47
2018-04-20T11:31:46.689Z,3.47
2018-04-20T11:34:15.860Z,3.93
2018-04-20T11:36:44.313Z,3.87
2018-04-20T11:39:13.262Z,4.50
2018-04-20T11:41:46.153Z,3.10
2018-04-20T11:44:14.699Z,6.83
2018-04-20T11:46:42.354Z,2.57
2018-04-20T11:49:10.104Z,6.53
2018-04-20T11:51:38.882Z,6.73
2018-04-20T11:54:20.331Z,4.70
2018-04-20T11:56:47.996Z,6.20
2018-04-20T11:59:15.662Z,5.67
2018-04-20T12:01:49.884Z,4.90
2018-04-20T12:04:17.613Z,5.17
2018-04-20T12:06:45.361Z,4.50
2018-04-20T12:09:23.026Z,3.73
2018-04-20T12:11:51.929Z,2.90
2018-04-20T12:14:21.082Z,2.87
2018-04-20T12:16:50.418Z,5.97
2018-04-20T12:19:18.932Z,5.53
2018-04-20T12:21:47.465Z,3.53
2018-04-20T12:24:15.720Z,4.00
2018-04-20T12:26:43.391Z,10.20
2018-04-20T12:29:12.589Z,4.50
2018-04-20T12:31:41.471Z,4.43
2018-04-20T12:34:10.583Z,5.37
2018-04-20T12:36:38.250Z,3.03
2018-04-20T12:39:07.284Z,2.90
2018-04-20T12:41:41.896Z,8.47
2018-04-20T12:44:12.273Z,7.17
2018-04-20T12:46:39.869Z,8.43
2018-04-20T12:49:07.575Z,2.93
2018-04-20T12:51:35.388Z,6.43
2018-04-20T12:54:03.035Z,6.97
2018-04-20T12:56:30.722Z,2.30
2018-04-20T12:58:58.413Z,4.40
2018-04-20T13:01:26.023Z,5.40
2018-04-20T13:03:54.388Z,3.43
2018-04-20T13:06:22.009Z,2.60
2018-04-20T13:08:49.773Z,5.00
2018-04-20T13:11:17.349Z,2.93
2018-04-20T13:13:45.010Z,4.33
2018-04-20T13:16:13.596Z,2.03
2018-04-20T13:18:41.280Z,7.90
2018-04-20T13:21:08.899Z,6.43
2018-04-20T13:23:36.641Z,2.80
2018-04-20T13:26:05.439Z,4.03
2018-04-20T13:28:33.165Z,2.30
2018-04-20T13:31:02.797Z,4.93
2018-04-20T13:33:30.464Z,4.10
2018-04-20T13:35:58.227Z,6.33
2018-04-20T13:38:26.182Z,6.93
2018-04-20T13:40:53.908Z,5.23
2018-04-20T13:43:21.668Z,3.03
2018-04-20T13:45:50.262Z,4.70
2018-04-20T13:48:17.952Z,9.80
2018-04-20T13:50:49.018Z,4.33
2018-04-20T13:53:16.729Z,9.40
2018-04-20T13:55:49.316Z,4.30
2018-04-20T13:58:16.999Z,4.30
2018-04-20T14:00:44.663Z,1.93
2018-04-20T14:03:12.473Z,2.30
2018-04-20T14:05:40.301Z,3.80
2018-04-20T14:08:07.942Z,4.40
2018-04-20T14:10:36.770Z,3.90
2018-04-20T14:13:04.449Z,7.13
2018-04-20T14:15:32.614Z,2.63
2018-04-20T14:18:00.297Z,4.33
2018-04-20T14:20:27.973Z,6.00
2018-04-20T14:22:55.818Z,2.63
2018-04-20T14:25:27.664Z,4.20
2018-04-20T14:27:55.285Z,5.60
2018-04-20T14:30:23.194Z,5.43
2018-04-20T14:32:50.890Z,6.40
2018-04-20T14:35:19.420Z,4.47
2018-04-20T14:37:48.285Z,6.33
2018-04-20T14:40:15.974Z,3.67
2018-04-20T14:45:17.325Z,5.13
2018-04-20T14:47:45.129Z,5.50
2018-04-20T14:50:12.865Z,9.10
2018-04-20T14:52:47.743Z,3.57
2018-04-20T14:55:16.440Z,6.63
2018-04-20T14:57:44.278Z,4.23
2018-04-20T15:00:12.807Z,5.63
2018-04-20T15:02:40.512Z,4.20
2018-04-20T15:05:13.082Z,8.97
2018-04-20T15:07:40.755Z,3.20
2018-04-20T15:10:08.408Z,4.73
2018-04-20T15:12:37.504Z,6.33
2018-04-20T15:15:05.795Z,4.17
2018-04-20T15:17:33.443Z,4.37
2018-04-20T15:20:01.220Z,4.60
2018-04-20T15:22:29.406Z,5.53
2018-04-20T15:24:57.041Z,5.40
2018-04-20T15:27:24.846Z,3.00
2018-04-20T15:29:52.635Z,11.63
2018-04-20T15:32:20.218Z,3.40
2018-04-20T15:34:48.922Z,9.83
2018-04-20T15:37:16.523Z,4.73
2018-04-20T15:39:44.172Z,6.30
2018-04-20T15:42:12.130Z,4.83
2018-04-20T15:44:39.797Z,3.57
2018-04-20T15:47:07.580Z,6.83
2018-04-20T15:49:35.154Z,4.03
2018-04-20T15:52:02.838Z,3.60
2018-04-20T15:54:30.503Z,6.40
2018-04-20T15:56:58.134Z,5.43
2018-04-20T15:59:26.687Z,4.43
2018-04-20T16:01:54.464Z,5.30
2018-04-20T16:04:23.473Z,3.43
2018-04-20T16:06:51.173Z,4.97
2018-04-20T16:09:18.868Z,6.27
2018-04-20T16:11:46.654Z,11.93
2018-04-20T16:14:14.408Z,10.17
2018-04-20T16:16:42.102Z,8.37
2018-04-20T16:19:09.715Z,7.07
2018-04-20T16:21:38.244Z,3.90
2018-04-20T16:24:05.861Z,5.17
2018-04-20T16:26:33.715Z,5.57
2018-04-20T16:29:01.345Z,5.63
2018-04-20T16:31:28.987Z,6.13
2018-04-20T16:36:30.365Z,3.30
2018-04-20T16:38:58.117Z,3.90
2018-04-20T16:41:25.738Z,4.83
2018-04-20T16:43:53.389Z,5.93
2018-04-20T16:46:21.079Z,3.70
2018-04-20T16:48:48.699Z,26.67
2018-04-20T16:51:17.683Z,46.47
2018-04-20T16:53:45.340Z,21.03
2018-04-20T16:56:13.584Z,17.33
2018-04-20T16:58:41.246Z,10.43
2018-04-20T17:01:08.904Z,10.73
2018-04-20T17:03:36.546Z,13.77
2018-04-20T17:06:04.213Z,10.90
2018-04-20T17:08:31.932Z,13.87
2018-04-20T17:10:59.611Z,14.53
2018-04-20T17:13:27.229Z,7.37
2018-04-20T17:15:54.857Z,12.90
2018-04-20T17:18:22.577Z,8.53
2018-04-20T17:20:50.177Z,9.10
2018-04-20T17:23:17.840Z,7.33
2018-04-20T17:25:45.527Z,6.03
2018-04-20T17:28:13.171Z,5.70
2018-04-20T17:30:41.744Z,7.03
2018-04-20T17:33:09.495Z,5.77
2018-04-20T17:35:37.126Z,5.20
2018-04-20T17:40:39.440Z,4.07
2018-04-20T17:43:07.092Z,4.17
2018-04-20T17:45:34.786Z,8.87
2018-04-20T17:48:02.445Z,20.37
2018-04-20T17:50:30.048Z,10.97
2018-04-20T17:52:57.773Z,7.17
2018-04-20T17:55:25.377Z,6.87
2018-04-20T17:57:53.037Z,7.97
2018-04-20T18:00:20.675Z,5.97
2018-04-20T18:02:49.766Z,6.87
2018-04-20T18:05:17.354Z,5.30
2018-04-20T18:07:44.943Z,5.20
2018-04-20T18:10:12.540Z,7.53
2018-04-20T18:12:40.176Z,4.53
2018-04-20T18:15:07.794Z,6.00
2018-04-20T18:17:35.573Z,11.23
2018-04-20T18:20:03.193Z,5.00
2018-04-20T18:22:30.919Z,7.50
2018-04-20T18:24:58.598Z,19.63
2018-04-20T18:27:27.251Z,35.10
2018-04-20T18:29:55.147Z,21.13
2018-04-20T18:32:22.772Z,10.50
2018-04-20T18:34:50.429Z,10.47
2018-04-20T18:37:18.121Z,12.67
2018-04-20T18:39:47.104Z,6.80
2018-04-20T18:42:14.682Z,7.60
2018-04-20T18:44:42.606Z,14.13
2018-04-20T18:47:11.373Z,7.90
2018-04-20T18:49:39.695Z,11.07
2018-04-20T18:52:07.468Z,5.30
2018-04-20T18:54:35.166Z,9.30
2018-04-20T18:57:04.727Z,5.20
2018-04-20T18:59:33.291Z,3.63
2018-04-20T19:02:07.184Z,3.77
2018-04-20T19:04:35.020Z,13.00
2018-04-20T19:07:02.752Z,8.67
2018-04-20T19:09:30.532Z,6.73
2018-04-20T19:11:58.266Z,6.00
2018-04-20T19:14:26.013Z,6.43
2018-04-20T19:16:54.644Z,5.97
2018-04-20T19:19:22.287Z,5.60
2018-04-20T19:21:49.984Z,10.17
2018-04-20T19:24:17.542Z,7.53
2018-04-20T19:26:45.362Z,5.57
2018-04-20T19:29:12.975Z,4.13
2018-04-20T19:31:41.161Z,6.77
2018-04-20T19:34:10.533Z,4.93
2018-04-20T19:36:39.096Z,6.23
2018-04-20T19:39:06.757Z,4.23
2018-04-20T19:41:35.453Z,11.43
2018-04-20T19:44:02.956Z,6.67
2018-04-20T19:46:30.515Z,9.00
2018-04-20T19:49:00.609Z,7.93
2018-04-20T19:51:33.476Z,7.37
2018-04-20T19:54:01.212Z,15.10
2018-04-20T19:56:29.123Z,62.57
2018-04-20T19:58:56.775Z,91.27
2018-04-20T20:01:24.469Z,32.77
2018-04-20T20:03:52.071Z,20.80
2018-04-20T20:06:19.661Z,51.73
2018-04-20T20:08:47.320Z,35.73
2018-04-20T20:11:15.321Z,17.87
2018-04-20T20:13:42.884Z,11.30
2018-04-20T20:16:10.421Z,9.47
2018-04-20T20:18:38.027Z,4.27
2018-04-20T20:21:05.736Z,5.40
2018-04-20T20:26:07.122Z,5.03
2018-04-20T20:28:34.917Z,11.53
2018-04-20T20:31:02.527Z,12.67
2018-04-20T20:33:30.170Z,9.30
2018-04-20T20:35:57.833Z,8.90
2018-04-20T20:38:25.496Z,6.90
2018-04-20T20:40:53.131Z,5.90
2018-04-20T20:43:20.778Z,5.70
2018-04-20T20:45:48.406Z,8.30
2018-04-20T20:48:16.040Z,8.83
2018-04-20T20:50:43.709Z,8.70
2018-04-20T20:53:14.482Z,6.30
2018-04-20T20:55:42.022Z,7.70
2018-04-20T20:58:09.667Z,12.90
2018-04-20T21:00:38.328Z,7.10
2018-04-20T21:03:06.014Z,8.37
2018-04-20T21:05:33.817Z,12.70
2018-04-20T21:08:01.348Z,12.97
2018-04-20T21:10:28.896Z,24.17
2018-04-20T21:12:56.502Z,13.63
2018-04-20T21:15:24.033Z,55.57
2018-04-20T21:17:51.657Z,48.47
2018-04-20T21:20:19.311Z,42.90
2018-04-20T21:22:47.480Z,18.47
2018-04-20T21:25:15.239Z,12.77
2018-04-20T21:27:42.924Z,11.70
2018-04-20T21:30:10.495Z,17.80
2018-04-20T21:32:38.047Z,14.67
2018-04-20T21:35:05.614Z,7.80
2018-04-20T21:37:33.216Z,10.23
2018-04-20T21:40:00.753Z,6.47
2018-04-20T21:42:28.321Z,4.57
2018-04-20T21:44:55.853Z,6.20
2018-04-20T21:47:24.237Z,7.27
2018-04-20T21:49:51.848Z,5.63
2018-04-20T21:52:19.510Z,3.80
2018-04-20T21:54:47.140Z,6.53
2018-04-20T21:57:14.901Z,5.20
2018-04-20T21:59:43.353Z,3.80
2018-04-20T22:02:10.929Z,7.83
2018-04-20T22:04:40.097Z,16.33
2018-04-20T22:07:07.891Z,6.93
2018-04-20T22:09:37.381Z,5.80
2018-04-20T22:12:06.134Z,5.33
2018-04-20T22:14:33.783Z,4.50
2018-04-20T22:17:01.408Z,4.40
2018-04-20T22:19:28.986Z,11.53
2018-04-20T22:21:56.619Z,6.37
2018-04-20T22:24:24.330Z,9.57
2018-04-20T22:26:51.976Z,28.17
2018-04-20T22:29:19.611Z,12.00
2018-04-20T22:31:48.029Z,8.30
2018-04-20T22:34:15.731Z,15.53
2018-04-20T22:36:43.310Z,7.23
2018-04-20T22:39:14.614Z,9.00
2018-04-20T22:41:42.384Z,8.93
2018-04-20T22:44:10.006Z,12.00
2018-04-20T22:46:37.672Z,16.63
2018-04-20T22:49:05.340Z,10.97
2018-04-20T22:51:32.909Z,9.10
2018-04-20T22:54:00.529Z,6.40
2018-04-20T22:56:28.273Z,9.63
2018-04-20T22:58:55.872Z,5.90
2018-04-20T23:01:23.549Z,15.57
2018-04-20T23:03:51.241Z,9.37
2018-04-20T23:06:18.896Z,18.00
2018-04-20T23:08:46.559Z,18.60
2018-04-20T23:11:14.647Z,11.27
2018-04-20T23:13:42.273Z,6.93
2018-04-20T23:16:09.822Z,9.97
2018-04-20T23:18:37.357Z,5.00
2018-04-20T23:21:04.971Z,11.13
2018-04-20T23:23:32.689Z,11.93
2018-04-20T23:26:00.482Z,8.77
2018-04-20T23:28:28.185Z,6.93
2018-04-20T23:30:55.802Z,10.53
2018-04-20T23:33:24.377Z,6.20
2018-04-20T23:36:08.313Z,11.23
2018-04-20T23:38:35.895Z,9.37
2018-04-20T23:41:03.565Z,5.37
2018-04-20T23:43:31.157Z,14.00
2018-04-20T23:45:58.817Z,6.27
2018-04-20T23:48:26.465Z,6.40
2018-04-20T23:50:54.086Z,9.93
2018-04-20T23:53:21.754Z,7.03
2018-04-20T23:55:49.432Z,10.67
2018-04-20T23:58:18.393Z,6.77
